Terminal Aerodrome Forecast
Issued by NWS

Home | Current Version | Previous Version | Text Only | Print | Product List | Glossary On
Versions: 1 2 3 4 5 6 7 8 9 10 11 12 13 14
000
FTUS42 KTBW 301121
TAFLAL
TAF
KLAL 301121Z 3012/3112 VRB03KT P6SM VCSH BKN060
     FM301300 VRB03KT P6SM SCT020 BKN250
      TEMPO 3013/3016 BKN020
     FM301700 27005KT P6SM SCT040 BKN250
     FM302000 30007KT P6SM VCTS BKN050CB
     FM310200 VRB03KT P6SM FEW060 SCT250=

USA.gov is the U.S. government's official web portal to all federal, state and local government web resources and services.